Time;durP1;ratioP1;P1;durP2;ratioP2;P2;SDS_P1;SDS_P2;PMS_P1;PMS_P2;Temp;Humidity;BMP_temperature;BMP_pressure;BME280_temperature;BME280_humidity;BME280_pressure;Samples;Min_cycle;Max_cycle;Signal;HPM_P1;HPM_P2
2021/12/15 00:00:38;;;;;;;16.67;11.52;;;2.60;98.20;;;;;;5057492;28;20025;-68
2021/12/15 00:03:07;;;;;;;18.83;11.88;;;2.60;98.20;;;;;;5057192;28;20025;-67
2021/12/15 00:05:33;;;;;;;15.90;11.13;;;2.60;98.50;;;;;;5057186;28;20158;-67
2021/12/15 00:08:11;;;;;;;16.15;11.93;;;2.60;98.60;;;;;;5056919;28;20029;-68
2021/12/15 00:10:41;;;;;;;17.42;11.38;;;2.60;98.80;;;;;;5057727;28;20029;-67
2021/12/15 00:13:07;;;;;;;17.13;11.27;;;2.50;98.80;;;;;;5055603;28;20052;-71
2021/12/15 00:15:33;;;;;;;15.90;11.13;;;2.50;99.00;;;;;;5056971;28;20052;-67
2021/12/15 00:17:59;;;;;;;15.15;10.88;;;2.50;99.20;;;;;;5056824;28;20055;-70
2021/12/15 00:20:27;;;;;;;17.02;11.77;;;2.50;99.20;;;;;;5056857;28;20036;-66
2021/12/15 00:22:53;;;;;;;17.65;12.70;;;2.50;99.50;;;;;;5057021;28;20068;-65
2021/12/15 00:25:21;;;;;;;16.52;11.63;;;2.50;99.60;;;;;;5056585;28;20032;-66
2021/12/15 00:27:47;;;;;;;22.70;14.55;;;2.50;99.90;;;;;;5056529;28;20104;-68
2021/12/15 00:30:13;;;;;;;22.17;14.05;;;2.50;99.90;;;;;;5056736;28;20446;-67
2021/12/15 00:32:39;;;;;;;19.55;12.50;;;2.50;99.90;;;;;;5056573;28;20037;-67
2021/12/15 00:35:06;;;;;;;20.58;13.95;;;2.50;99.90;;;;;;5056654;28;20407;-67
2021/12/15 00:37:32;;;;;;;21.45;13.50;;;2.50;99.90;;;;;;5047893;28;20029;-70
2021/12/15 00:39:58;;;;;;;18.42;12.65;;;2.50;99.90;;;;;;5056718;28;20035;-69
2021/12/15 00:42:24;;;;;;;17.05;11.75;;;2.40;99.90;;;;;;5056104;28;20111;-67
2021/12/15 00:44:50;;;;;;;20.27;13.60;;;2.50;99.90;;;;;;5056464;28;20031;-67
2021/12/15 00:47:15;;;;;;;19.35;12.90;;;2.50;99.90;;;;;;5056424;28;20105;-67
2021/12/15 00:49:42;;;;;;;18.75;12.68;;;2.50;99.90;;;;;;5056675;28;20032;-67
2021/12/15 00:52:08;;;;;;;18.73;12.13;;;2.50;99.90;;;;;;5054934;28;20456;-68
2021/12/15 00:54:35;;;;;;;18.35;12.18;;;2.50;99.90;;;;;;5056079;28;20028;-66
2021/12/15 00:57:02;;;;;;;14.50;11.07;;;2.50;99.90;;;;;;5056454;28;20047;-67
2021/12/15 00:59:28;;;;;;;18.90;13.05;;;2.50;99.90;;;;;;5056090;28;20035;-67
2021/12/15 01:01:54;;;;;;;15.00;10.10;;;2.50;99.90;;;;;;5055538;28;20108;-68
2021/12/15 01:04:22;;;;;;;17.17;11.57;;;2.50;99.90;;;;;;5054979;28;20017;-66
2021/12/15 01:06:55;;;;;;;14.70;10.60;;;2.50;99.90;;;;;;5056429;28;20063;-69
2021/12/15 01:09:33;;;;;;;17.40;11.60;;;2.50;99.90;;;;;;5055981;28;20029;-67
2021/12/15 01:19:54;;;;;;;18.55;12.25;;;2.50;99.90;;;;;;5055910;28;20032;-68
2021/12/15 01:22:30;;;;;;;18.02;12.30;;;2.50;99.90;;;;;;5055821;28;20383;-67
2021/12/15 01:25:03;;;;;;;17.15;12.10;;;2.60;99.90;;;;;;5055782;28;20041;-66
2021/12/15 01:27:29;;;;;;;19.23;12.90;;;2.60;99.90;;;;;;5055894;28;20021;-70
2021/12/15 01:29:56;;;;;;;19.20;13.02;;;2.60;99.90;;;;;;5055405;28;20474;-67
2021/12/15 01:32:22;;;;;;;15.32;10.85;;;2.60;99.90;;;;;;5055485;28;20029;-67
2021/12/15 01:34:48;;;;;;;15.63;11.23;;;2.60;99.90;;;;;;5055491;28;20047;-67
2021/12/15 01:37:16;;;;;;;14.82;10.70;;;2.60;99.90;;;;;;5055562;28;20025;-65
2021/12/15 01:39:42;;;;;;;15.57;11.27;;;2.60;99.90;;;;;;5055343;28;20104;-65
2021/12/15 01:42:08;;;;;;;15.82;11.48;;;2.50;99.90;;;;;;5054245;28;20044;-65
2021/12/15 01:47:19;;;;;;;15.13;11.18;;;2.60;99.90;;;;;;5055762;28;20379;-67
2021/12/15 01:49:49;;;;;;;14.60;10.90;;;2.60;99.90;;;;;;5055708;28;20029;-68
2021/12/15 01:52:19;;;;;;;15.32;11.07;;;2.60;99.90;;;;;;5055697;28;20040;-69
2021/12/15 01:54:49;;;;;;;13.43;9.60;;;2.60;99.90;;;;;;5055133;28;20056;-66
2021/12/15 01:57:16;;;;;;;16.10;11.63;;;2.60;99.90;;;;;;5055548;28;20064;-68
2021/12/15 01:59:45;;;;;;;14.75;10.50;;;2.50;99.90;;;;;;5055144;28;20537;-67
2021/12/15 02:02:11;;;;;;;15.98;11.50;;;2.60;99.90;;;;;;5054952;28;20028;-70
2021/12/15 02:04:37;;;;;;;16.75;12.07;;;2.60;99.90;;;;;;5054872;28;20379;-68
2021/12/15 02:07:07;;;;;;;18.33;12.18;;;2.60;99.90;;;;;;5053544;28;20035;-70
2021/12/15 02:12:09;;;;;;;14.75;11.07;;;2.60;99.90;;;;;;5053995;28;20084;-66
2021/12/15 02:14:35;;;;;;;15.45;11.10;;;2.60;99.90;;;;;;5054320;28;20033;-70
2021/12/15 02:17:01;;;;;;;16.00;11.02;;;2.60;99.90;;;;;;5053441;28;20021;-66
2021/12/15 02:19:27;;;;;;;13.93;9.95;;;2.60;99.90;;;;;;5053244;28;20036;-67
2021/12/15 02:21:53;;;;;;;13.93;10.32;;;2.60;99.90;;;;;;5054616;28;20025;-64
2021/12/15 02:24:20;;;;;;;13.88;10.00;;;2.70;99.90;;;;;;5054544;28;20035;-65
2021/12/15 02:26:50;;;;;;;13.73;10.30;;;2.70;99.90;;;;;;5054903;28;20028;-66
2021/12/15 02:29:19;;;;;;;13.32;9.45;;;2.70;99.90;;;;;;5054644;28;20432;-68
2021/12/15 02:37:18;;;;;;;14.27;9.73;;;2.70;99.90;;;;;;5054423;28;20413;-69
2021/12/15 02:39:45;;;;;;;12.13;8.73;;;2.70;99.90;;;;;;5053140;28;20060;-66
2021/12/15 02:42:12;;;;;;;11.88;8.60;;;2.70;99.90;;;;;;5054248;28;20057;-66
2021/12/15 02:44:43;;;;;;;11.18;8.43;;;2.60;99.90;;;;;;5054178;28;20064;-65
2021/12/15 02:47:17;;;;;;;14.10;9.13;;;2.60;99.90;;;;;;5054194;28;20025;-66
2021/12/15 02:49:43;;;;;;;15.13;9.90;;;2.60;99.90;;;;;;5053373;28;20375;-65
2021/12/15 02:52:10;;;;;;;12.45;9.05;;;2.60;99.90;;;;;;5053925;28;20032;-67
2021/12/15 02:54:36;;;;;;;13.25;8.75;;;2.60;99.90;;;;;;5053814;28;20040;-68
2021/12/15 02:57:07;;;;;;;13.82;9.40;;;2.60;99.90;;;;;;5053949;28;20082;-67
2021/12/15 02:59:54;;;;;;;13.23;9.07;;;2.50;99.90;;;;;;5054333;28;20467;-67
2021/12/15 03:05:33;;;;;;;13.18;9.38;;;2.50;99.90;;;;;;5053791;28;20078;-68
2021/12/15 03:15:53;;;;;;;20.40;13.57;;;2.60;99.90;;;;;;5054027;28;20031;-66
2021/12/15 03:18:24;;;;;;;18.35;12.13;;;2.60;99.90;;;;;;5053527;28;20025;-65
2021/12/15 03:20:55;;;;;;;16.25;11.35;;;2.60;99.90;;;;;;5054072;28;20029;-67
2021/12/15 03:23:39;;;;;;;26.15;17.98;;;2.60;99.90;;;;;;5052509;28;20033;-64
2021/12/15 03:26:06;;;;;;;22.13;14.80;;;2.60;99.90;;;;;;5053702;28;20032;-68
2021/12/15 03:37:03;;;;;;;19.92;12.98;;;2.70;99.90;;;;;;5053628;28;20029;-66
2021/12/15 03:39:35;;;;;;;16.48;11.90;;;2.60;99.90;;;;;;5053455;28;20036;-67
2021/12/15 03:42:06;;;;;;;19.23;12.85;;;2.60;99.90;;;;;;5053685;28;20391;-67
2021/12/15 03:44:36;;;;;;;15.50;10.77;;;2.60;99.90;;;;;;5052411;28;20044;-68
2021/12/15 03:47:09;;;;;;;15.25;10.90;;;2.60;99.90;;;;;;5053541;28;20052;-70
2021/12/15 03:49:36;;;;;;;13.93;10.45;;;2.60;99.90;;;;;;5053674;28;20031;-66
2021/12/15 03:52:06;;;;;;;15.50;11.40;;;2.60;99.90;;;;;;5053096;28;20029;-67
2021/12/15 03:54:32;;;;;;;14.02;10.45;;;2.60;99.90;;;;;;5053445;28;20036;-67
2021/12/15 03:56:58;;;;;;;16.58;11.75;;;2.60;99.90;;;;;;5053373;28;20386;-67
2021/12/15 03:59:25;;;;;;;14.70;10.23;;;2.60;99.90;;;;;;5053350;28;20039;-68
2021/12/15 04:01:51;;;;;;;14.60;10.60;;;2.60;99.90;;;;;;5052973;28;20040;-67
2021/12/15 04:04:17;;;;;;;18.70;13.50;;;2.70;99.90;;;;;;5053272;28;20066;-67
2021/12/15 04:06:43;;;;;;;16.55;11.60;;;2.70;99.90;;;;;;5053124;28;20130;-67
2021/12/15 04:09:11;;;;;;;16.77;12.73;;;2.70;99.90;;;;;;5053279;28;20562;-65
2021/12/15 04:11:38;;;;;;;20.70;12.90;;;2.70;99.90;;;;;;5052967;28;20044;-67
2021/12/15 04:14:08;;;;;;;17.90;12.75;;;2.70;99.90;;;;;;5053029;28;20041;-69
2021/12/15 04:19:07;;;;;;;15.82;11.25;;;2.70;99.90;;;;;;5053118;28;20025;-66
2021/12/15 04:21:33;;;;;;;15.45;11.38;;;2.70;99.90;;;;;;5053075;28;20064;-67
2021/12/15 04:23:59;;;;;;;16.80;12.50;;;2.70;99.90;;;;;;5053067;28;20111;-67
2021/12/15 04:26:26;;;;;;;15.88;11.20;;;2.70;99.90;;;;;;5053060;28;20053;-68
2021/12/15 04:28:52;;;;;;;16.30;11.50;;;2.70;99.90;;;;;;5053059;28;20031;-66
2021/12/15 04:31:22;;;;;;;12.82;9.60;;;2.70;99.90;;;;;;5051771;28;20024;-64
2021/12/15 04:34:15;;;;;;;13.98;10.05;;;2.70;99.90;;;;;;5051794;28;20087;-69
2021/12/15 04:36:44;;;;;;;15.90;10.80;;;2.70;99.90;;;;;;5054155;28;20037;-66
2021/12/15 04:39:13;;;;;;;14.88;10.00;;;2.70;99.90;;;;;;5056456;28;20021;-66
2021/12/15 04:41:44;;;;;;;15.48;12.73;;;2.70;99.90;;;;;;5055111;28;20036;-64
2021/12/15 04:44:11;;;;;;;20.27;17.08;;;2.70;99.90;;;;;;5056594;28;20040;-64
2021/12/15 04:46:40;;;;;;;19.13;14.80;;;2.70;99.90;;;;;;5054978;28;20025;-71
2021/12/15 04:49:10;;;;;;;17.52;13.90;;;2.70;99.90;;;;;;5056144;28;20033;-66
2021/12/15 04:51:36;;;;;;;16.58;10.95;;;2.70;99.90;;;;;;5056194;28;20029;-66
2021/12/15 04:54:02;;;;;;;17.77;13.25;;;2.70;99.90;;;;;;5056178;28;20036;-67
2021/12/15 04:56:28;;;;;;;20.75;14.68;;;2.70;99.90;;;;;;5055935;28;20080;-67
2021/12/15 04:58:55;;;;;;;14.63;10.23;;;2.70;99.90;;;;;;5056109;28;20021;-67
2021/12/15 05:01:22;;;;;;;15.15;11.32;;;2.70;99.90;;;;;;5056044;28;20450;-69
2021/12/15 05:03:48;;;;;;;15.13;11.90;;;2.70;99.90;;;;;;5056106;28;20402;-69
2021/12/15 05:06:14;;;;;;;17.10;14.10;;;2.70;99.90;;;;;;5055898;28;20031;-68
2021/12/15 05:08:41;;;;;;;16.98;13.02;;;2.70;99.90;;;;;;5055923;28;20021;-69
2021/12/15 05:11:09;;;;;;;16.60;12.02;;;2.70;99.90;;;;;;5055594;28;20099;-68
2021/12/15 05:13:36;;;;;;;14.82;11.10;;;2.70;99.90;;;;;;5055606;28;20390;-66
2021/12/15 05:16:03;;;;;;;13.75;9.60;;;2.70;99.90;;;;;;5055570;28;20035;-67
2021/12/15 05:18:30;;;;;;;13.95;10.02;;;2.70;99.90;;;;;;5055807;28;20025;-69
2021/12/15 05:20:58;;;;;;;12.30;9.32;;;2.70;99.90;;;;;;5055726;28;20017;-67
2021/12/15 05:23:29;;;;;;;12.48;8.57;;;2.70;99.90;;;;;;5055401;28;20386;-67
2021/12/15 05:25:56;;;;;;;14.05;9.77;;;2.70;99.90;;;;;;5055667;28;20376;-68
2021/12/15 05:28:22;;;;;;;11.05;8.40;;;2.70;99.90;;;;;;5055859;28;20090;-71
2021/12/15 05:30:48;;;;;;;12.65;9.40;;;2.70;99.90;;;;;;5055192;28;20025;-67
2021/12/15 05:33:13;;;;;;;11.02;8.40;;;2.70;99.90;;;;;;5055274;28;20073;-71
2021/12/15 05:35:39;;;;;;;11.10;8.27;;;2.70;99.90;;;;;;5055508;28;20460;-66
2021/12/15 05:38:06;;;;;;;12.07;9.27;;;2.70;99.90;;;;;;5055331;28;20025;-67
2021/12/15 05:40:34;;;;;;;11.00;8.50;;;2.70;99.90;;;;;;5055485;28;20122;-67
2021/12/15 05:43:00;;;;;;;11.63;8.57;;;2.70;99.90;;;;;;5053991;28;20451;-67
2021/12/15 05:45:28;;;;;;;12.60;9.35;;;2.70;99.90;;;;;;5055193;28;20033;-67
2021/12/15 05:47:55;;;;;;;12.68;8.93;;;2.70;99.90;;;;;;5054814;28;20107;-64
2021/12/15 05:50:22;;;;;;;13.25;8.77;;;2.70;99.90;;;;;;5055385;28;20021;-66
2021/12/15 05:52:48;;;;;;;11.45;9.27;;;2.70;99.90;;;;;;5055271;28;20390;-67
2021/12/15 05:55:16;;;;;;;13.02;8.88;;;2.70;99.90;;;;;;5055200;28;20029;-66
2021/12/15 05:57:42;;;;;;;11.65;8.70;;;2.70;99.90;;;;;;5054864;28;20485;-67
2021/12/15 06:00:12;;;;;;;11.73;9.43;;;2.80;99.90;;;;;;5054683;28;20100;-67
2021/12/15 06:02:39;;;;;;;16.48;10.80;;;2.70;99.90;;;;;;5055179;28;20029;-67
2021/12/15 06:05:06;;;;;;;20.13;12.63;;;2.80;99.90;;;;;;5054412;28;20075;-67
2021/12/15 06:07:32;;;;;;;17.98;12.52;;;2.70;99.90;;;;;;5054749;28;20043;-67
2021/12/15 06:09:58;;;;;;;20.90;12.80;;;2.80;99.90;;;;;;5053203;28;20025;-68
2021/12/15 06:12:24;;;;;;;19.15;12.73;;;2.80;99.90;;;;;;5053630;28;20052;-67
2021/12/15 06:14:50;;;;;;;16.02;11.88;;;2.80;99.90;;;;;;5054573;28;20099;-68
2021/12/15 06:17:15;;;;;;;19.85;13.27;;;2.70;99.90;;;;;;5054509;28;20459;-68
2021/12/15 06:19:41;;;;;;;19.73;12.73;;;2.80;99.90;;;;;;5054315;28;20028;-69
2021/12/15 06:22:09;;;;;;;16.02;10.77;;;2.70;99.90;;;;;;5054678;28;20459;-67
2021/12/15 06:24:36;;;;;;;16.25;9.98;;;2.80;99.90;;;;;;5053087;28;20025;-66
2021/12/15 06:27:09;;;;;;;13.02;8.75;;;2.80;99.90;;;;;;5054280;28;20033;-65
2021/12/15 06:29:36;;;;;;;12.27;8.32;;;2.80;99.90;;;;;;5054286;28;20078;-65
2021/12/15 06:32:04;;;;;;;13.20;9.75;;;2.80;99.90;;;;;;5054264;28;20070;-67
2021/12/15 06:34:30;;;;;;;15.75;10.35;;;2.80;99.90;;;;;;5054330;28;20040;-65
2021/12/15 06:36:57;;;;;;;16.98;11.73;;;2.80;99.90;;;;;;5054195;28;20025;-66
2021/12/15 06:39:23;;;;;;;19.42;12.13;;;2.80;99.90;;;;;;5054151;28;20033;-71
2021/12/15 06:41:49;;;;;;;15.48;9.57;;;2.80;99.90;;;;;;5054219;28;20021;-68
2021/12/15 06:44:16;;;;;;;17.30;10.27;;;2.80;99.90;;;;;;5052808;28;20037;-68
2021/12/15 07:00:13;;;;;;;17.25;11.27;;;2.80;99.90;;;;;;5053662;28;20493;-68
2021/12/15 07:02:39;;;;;;;18.88;14.07;;;2.80;99.90;;;;;;5053905;28;20048;-67
2021/12/15 07:05:09;;;;;;;11.07;7.40;;;2.80;99.90;;;;;;5053823;28;20108;-68
2021/12/15 07:07:36;;;;;;;13.82;10.23;;;2.80;99.90;;;;;;5053604;28;20025;-69
2021/12/15 07:10:06;;;;;;;15.07;10.73;;;2.80;99.90;;;;;;5053744;28;20025;-67
2021/12/15 07:12:31;;;;;;;12.02;9.48;;;2.90;99.90;;;;;;5053575;28;20067;-68
2021/12/15 07:14:57;;;;;;;12.48;8.85;;;2.90;99.90;;;;;;5053795;28;20033;-68
2021/12/15 07:17:25;;;;;;;10.43;8.15;;;2.90;99.90;;;;;;5052041;28;20029;-67
2021/12/15 07:20:32;;;;;;;10.00;7.60;;;2.90;99.90;;;;;;5053628;28;20025;-66
2021/12/15 07:25:07;;;;;;;13.25;9.75;;;2.90;99.90;;;;;;5053529;28;20079;-67
2021/12/15 07:27:32;;;;;;;19.17;12.77;;;2.90;99.90;;;;;;5053496;28;20033;-68
2021/12/15 07:29:58;;;;;;;12.18;8.10;;;2.90;99.90;;;;;;5053390;28;20030;-67
2021/12/15 07:32:24;;;;;;;11.77;8.57;;;2.90;99.90;;;;;;5053511;28;20368;-69
2021/12/15 07:34:50;;;;;;;12.10;8.75;;;2.90;99.90;;;;;;5054082;28;20371;-68
2021/12/15 07:37:15;;;;;;;14.77;9.93;;;2.90;99.90;;;;;;5053804;28;20445;-68
2021/12/15 07:39:48;;;;;;;14.48;10.05;;;2.90;99.90;;;;;;5053458;28;20031;-69
2021/12/15 07:42:15;;;;;;;16.05;10.68;;;2.90;99.90;;;;;;5053180;28;20494;-71
2021/12/15 07:44:41;;;;;;;21.13;15.20;;;3.00;99.90;;;;;;5053243;28;20436;-69
2021/12/15 07:47:07;;;;;;;19.17;12.80;;;3.10;99.90;;;;;;5053704;28;20108;-65
2021/12/15 07:49:34;;;;;;;20.92;14.10;;;3.20;99.90;;;;;;5053891;28;20474;-67
2021/12/15 07:52:02;;;;;;;23.08;15.40;;;3.20;99.90;;;;;;5053325;28;20025;-66
2021/12/15 07:54:30;;;;;;;28.33;17.90;;;3.20;99.90;;;;;;5053206;28;20036;-67
2021/12/15 07:56:56;;;;;;;27.85;17.67;;;3.20;99.90;;;;;;5053189;28;20052;-67
2021/12/15 07:59:22;;;;;;;23.85;15.55;;;3.20;99.90;;;;;;5053175;28;20088;-67
2021/12/15 08:01:48;;;;;;;16.00;10.98;;;3.30;99.90;;;;;;5053472;28;20029;-66
2021/12/15 08:04:13;;;;;;;13.68;9.82;;;3.30;99.90;;;;;;5052265;28;20095;-66
2021/12/15 08:06:40;;;;;;;12.65;8.15;;;3.40;99.90;;;;;;5053588;28;20021;-66
2021/12/15 08:09:06;;;;;;;12.73;7.63;;;3.40;99.40;;;;;;5053222;28;20482;-66
2021/12/15 08:11:33;;;;;;;11.73;9.77;;;3.40;99.10;;;;;;5054312;28;20045;-68
2021/12/15 08:13:58;;;;;;;12.68;10.10;;;3.40;98.80;;;;;;5056696;28;20489;-67
2021/12/15 08:16:25;;;;;;;13.20;10.45;;;3.50;98.40;;;;;;5057008;28;20111;-68
2021/12/15 08:18:51;;;;;;;13.35;11.30;;;3.50;98.50;;;;;;5056805;28;20033;-67
2021/12/15 08:21:17;;;;;;;12.55;10.35;;;3.60;98.40;;;;;;5056801;28;20021;-67
2021/12/15 08:23:43;;;;;;;12.93;10.75;;;3.60;97.90;;;;;;5056764;28;20073;-69
2021/12/15 08:26:10;;;;;;;12.57;9.85;;;3.60;97.20;;;;;;5056723;28;20028;-68
2021/12/15 08:28:36;;;;;;;14.80;12.15;;;3.60;96.80;;;;;;5056972;28;20025;-67
2021/12/15 08:31:04;;;;;;;16.83;13.07;;;3.60;96.90;;;;;;5056587;28;20213;-69
2021/12/15 08:33:30;;;;;;;15.65;12.30;;;3.60;96.90;;;;;;5056419;28;20166;-69
2021/12/15 08:36:01;;;;;;;15.85;12.07;;;3.50;96.90;;;;;;5056509;28;20458;-66
2021/12/15 08:38:28;;;;;;;14.07;10.65;;;3.50;97.00;;;;;;5056587;28;20028;-67
2021/12/15 08:40:56;;;;;;;16.85;11.35;;;3.50;97.10;;;;;;5056355;28;20455;-67
2021/12/15 08:43:23;;;;;;;17.33;12.50;;;3.50;97.00;;;;;;5056862;28;20459;-68
2021/12/15 08:45:55;;;;;;;19.42;13.13;;;3.50;96.90;;;;;;5056673;28;20032;-68
2021/12/15 08:48:21;;;;;;;17.35;12.50;;;3.40;96.70;;;;;;5056477;28;20108;-67
2021/12/15 08:50:47;;;;;;;18.13;12.30;;;3.50;97.00;;;;;;5056247;28;20506;-66
2021/12/15 08:53:13;;;;;;;18.88;13.02;;;3.40;97.20;;;;;;5055823;28;20041;-67
2021/12/15 08:55:46;;;;;;;19.00;13.35;;;3.30;97.50;;;;;;5056085;28;20029;-67
2021/12/15 08:58:14;;;;;;;18.98;12.45;;;3.30;98.10;;;;;;5056279;28;20025;-68
2021/12/15 09:00:43;;;;;;;20.15;13.13;;;3.40;98.30;;;;;;5056306;28;20017;-67
2021/12/15 09:03:10;;;;;;;19.73;12.15;;;3.40;98.20;;;;;;5056122;28;20025;-65
2021/12/15 09:05:36;;;;;;;20.50;13.13;;;3.30;98.50;;;;;;5056028;28;20029;-69
2021/12/15 09:08:04;;;;;;;22.52;15.15;;;3.30;98.60;;;;;;5056189;28;20021;-67
2021/12/15 09:10:32;;;;;;;35.55;20.65;;;3.20;99.20;;;;;;5055881;28;20057;-67
2021/12/15 09:13:00;;;;;;;32.85;20.45;;;3.20;99.50;;;;;;5055860;28;20052;-67
2021/12/15 09:15:26;;;;;;;32.92;20.13;;;3.20;99.60;;;;;;5056237;28;20459;-68
2021/12/15 09:17:52;;;;;;;28.48;16.85;;;3.20;99.90;;;;;;5054293;28;20112;-68
2021/12/15 09:20:22;;;;;;;33.03;21.33;;;3.20;99.90;;;;;;5055676;28;20098;-68
2021/12/15 09:22:47;;;;;;;27.52;18.67;;;3.40;99.90;;;;;;5055513;28;20029;-65
2021/12/15 09:25:15;;;;;;;31.23;19.50;;;3.40;99.90;;;;;;5055712;28;20539;-71
2021/12/15 09:27:42;;;;;;;28.25;19.25;;;3.40;99.90;;;;;;5054520;28;20356;-66
2021/12/15 09:30:11;;;;;;;34.38;23.77;;;3.40;99.90;;;;;;5054256;28;20032;-66
2021/12/15 09:32:38;;;;;;;29.95;19.50;;;3.40;99.90;;;;;;5054136;28;20037;-67
2021/12/15 09:35:06;;;;;;;26.30;17.80;;;3.30;99.90;;;;;;5055404;28;20037;-65
2021/12/15 09:37:32;;;;;;;24.25;17.20;;;3.30;99.90;;;;;;5055709;28;20425;-68
2021/12/15 09:39:58;;;;;;;27.23;17.60;;;3.30;99.90;;;;;;5055219;28;20455;-68
2021/12/15 09:42:30;;;;;;;28.75;19.40;;;3.20;99.90;;;;;;5055363;28;20025;-68
2021/12/15 09:45:04;;;;;;;29.42;18.40;;;3.20;99.90;;;;;;5055252;28;20036;-69
2021/12/15 09:47:46;;;;;;;26.25;17.00;;;3.20;99.90;;;;;;5054093;28;20033;-68
2021/12/15 10:06:51;;;;;;;23.75;16.48;;;3.30;99.80;;;;;;5054955;28;20079;-67
2021/12/15 10:17:47;;;;;;;26.45;16.85;;;3.40;99.30;;;;;;5043367;28;20060;-68
2021/12/15 10:20:18;;;;;;;30.00;17.45;;;3.40;98.90;;;;;;5054645;28;20036;-67
2021/12/15 10:22:47;;;;;;;26.60;16.92;;;3.40;98.90;;;;;;5054588;28;20421;-68
2021/12/15 10:25:25;;;;;;;29.90;18.65;;;3.40;99.10;;;;;;5054269;28;20021;-65
2021/12/15 10:28:06;;;;;;;34.80;20.95;;;3.40;99.00;;;;;;5054395;28;20068;-69
2021/12/15 10:30:40;;;;;;;40.40;22.38;;;3.50;99.10;;;;;;5054347;28;20025;-68
2021/12/15 10:33:09;;;;;;;49.88;26.67;;;3.50;99.20;;;;;;5052620;28;20033;-65
2021/12/15 10:35:41;;;;;;;44.63;25.33;;;3.50;98.90;;;;;;5054096;28;20021;-66
2021/12/15 10:38:18;;;;;;;34.75;21.55;;;3.50;98.70;;;;;;5054376;28;20484;-68
2021/12/15 10:41:09;;;;;;;34.92;20.67;;;3.50;98.40;;;;;;5054148;28;20021;-68
2021/12/15 10:43:54;;;;;;;34.50;19.67;;;3.40;98.00;;;;;;5054263;28;20029;-68
2021/12/15 10:46:31;;;;;;;30.45;18.95;;;3.40;98.00;;;;;;5054535;28;20116;-66
2021/12/15 10:49:07;;;;;;;37.72;19.70;;;3.30;98.10;;;;;;5053477;28;20029;-66
2021/12/15 10:51:47;;;;;;;35.92;20.95;;;3.30;98.10;;;;;;5052949;28;20025;-66
2021/12/15 10:54:19;;;;;;;40.05;22.77;;;3.30;98.30;;;;;;5053759;28;20033;-66
2021/12/15 10:56:49;;;;;;;37.20;22.60;;;3.20;98.60;;;;;;5053608;28;20017;-68
2021/12/15 10:59:16;;;;;;;37.83;21.40;;;3.20;98.90;;;;;;5053672;28;20025;-65
2021/12/15 11:01:44;;;;;;;38.15;21.33;;;3.30;99.00;;;;;;5054074;28;20411;-66
2021/12/15 11:04:21;;;;;;;36.47;21.45;;;3.30;99.20;;;;;;5052449;28;20025;-70
2021/12/15 11:07:07;;;;;;;35.30;21.13;;;3.30;98.70;;;;;;5053164;28;20490;-66
2021/12/15 11:09:40;;;;;;;37.40;20.98;;;3.30;98.90;;;;;;5051998;28;20175;-70
2021/12/15 11:12:11;;;;;;;34.00;20.00;;;3.30;98.60;;;;;;5053036;28;20094;-69
2021/12/15 11:14:40;;;;;;;39.40;20.67;;;3.30;98.40;;;;;;5053546;28;20134;-67
2021/12/15 11:17:28;;;;;;;35.45;20.85;;;3.30;98.30;;;;;;5053429;28;20024;-66
2021/12/15 11:19:58;;;;;;;38.92;20.17;;;3.20;98.40;;;;;;5050840;28;20462;-69
2021/12/15 11:22:55;;;;;;;38.88;21.60;;;3.20;98.30;;;;;;5053654;28;20029;-67
2021/12/15 11:25:27;;;;;;;39.28;21.63;;;3.20;98.60;;;;;;5053404;28;20459;-68
2021/12/15 11:28:08;;;;;;;41.08;23.13;;;3.20;98.80;;;;;;5053060;28;20128;-70
2021/12/15 11:30:41;;;;;;;41.03;22.83;;;3.10;98.90;;;;;;5053381;28;20025;-74
2021/12/15 11:33:15;;;;;;;39.85;22.90;;;3.20;99.20;;;;;;5053341;28;20033;-72
2021/12/15 11:36:04;;;;;;;49.03;25.55;;;3.20;99.50;;;;;;5052163;28;20036;-72
2021/12/15 11:38:34;;;;;;;46.80;24.45;;;3.10;99.50;;;;;;5053222;28;20041;-73
2021/12/15 11:41:00;;;;;;;44.22;23.95;;;3.10;99.70;;;;;;5053391;28;20035;-71
2021/12/15 11:43:30;;;;;;;42.65;23.15;;;3.10;99.80;;;;;;5053864;28;20111;-71
2021/12/15 11:45:56;;;;;;;48.13;24.27;;;3.10;99.70;;;;;;5054439;28;20061;-70
2021/12/15 11:48:25;;;;;;;43.85;23.67;;;3.10;99.80;;;;;;5056230;28;20052;-71
2021/12/15 11:50:54;;;;;;;51.28;25.83;;;3.00;99.90;;;;;;5056868;28;20374;-72
2021/12/15 11:53:32;;;;;;;45.00;26.08;;;3.10;99.90;;;;;;5056097;28;20025;-72
2021/12/15 11:56:18;;;;;;;43.85;23.92;;;3.10;99.90;;;;;;5057375;28;20401;-72
2021/12/15 11:58:45;;;;;;;45.20;25.48;;;3.10;99.90;;;;;;5055929;28;20029;-73
2021/12/15 12:02:01;;;;;;;48.40;27.35;;;3.10;99.90;;;;;;5055801;28;20029;-75
2021/12/15 12:04:33;;;;;;;55.47;30.05;;;3.10;99.90;;;;;;5056495;28;20483;-72
2021/12/15 12:07:41;;;;;;;50.40;26.75;;;3.20;99.80;;;;;;5055624;28;20029;-70
2021/12/15 12:10:21;;;;;;;56.20;29.80;;;3.20;99.40;;;;;;5049793;28;20036;-70
2021/12/15 12:12:53;;;;;;;54.00;28.02;;;3.10;99.90;;;;;;5056729;28;20437;-71
2021/12/15 12:15:27;;;;;;;58.13;27.75;;;3.20;99.90;;;;;;5055955;28;20098;-73
2021/12/15 12:17:55;;;;;;;58.97;29.05;;;3.20;99.90;;;;;;5057517;28;20032;-72
2021/12/15 12:20:27;;;;;;;61.30;29.77;;;3.10;99.90;;;;;;5055582;28;20048;-71
2021/12/15 12:22:55;;;;;;;60.40;28.65;;;3.10;99.90;;;;;;5055850;28;20033;-71
2021/12/15 12:25:34;;;;;;;60.22;28.35;;;3.00;99.90;;;;;;5055598;28;20029;-71
2021/12/15 12:28:00;;;;;;;58.80;28.77;;;3.00;99.90;;;;;;5056704;28;20021;-71
2021/12/15 12:30:29;;;;;;;61.65;27.80;;;2.90;99.90;;;;;;5057128;28;20360;-70
2021/12/15 12:32:56;;;;;;;55.63;27.38;;;2.90;99.90;;;;;;5055700;28;20037;-71
2021/12/15 12:35:29;;;;;;;55.30;30.00;;;2.80;99.90;;;;;;5055501;28;20037;-72
2021/12/15 12:38:02;;;;;;;51.70;27.23;;;2.90;99.90;;;;;;5056570;28;20032;-70
2021/12/15 12:40:37;;;;;;;59.22;29.58;;;2.90;99.90;;;;;;5056336;28;20021;-70
2021/12/15 12:43:27;;;;;;;54.13;28.52;;;3.00;99.90;;;;;;5056328;28;20078;-74
2021/12/15 12:46:23;;;;;;;56.78;27.77;;;3.00;99.90;;;;;;5056398;28;20463;-73
2021/12/15 13:00:27;;;;;;;49.13;25.88;;;3.00;99.90;;;;;;5056121;28;20482;-71
2021/12/15 13:03:09;;;;;;;53.22;27.30;;;3.00;99.90;;;;;;5056166;28;20052;-70
2021/12/15 13:05:42;;;;;;;54.42;26.25;;;3.00;99.90;;;;;;5054678;28;20090;-72
2021/12/15 13:08:32;;;;;;;51.67;26.88;;;3.00;99.90;;;;;;5054434;28;20033;-72
2021/12/15 13:11:17;;;;;;;52.33;26.60;;;3.00;99.90;;;;;;5041372;28;20087;-72
2021/12/15 13:14:09;;;;;;;48.42;25.65;;;3.00;99.90;;;;;;5034284;28;20438;-70
2021/12/15 13:16:41;;;;;;;48.60;24.70;;;2.90;99.90;;;;;;5034477;28;20036;-72
2021/12/15 13:19:23;;;;;;;46.10;23.85;;;2.90;99.90;;;;;;5034757;28;20423;-72
2021/12/15 13:30:56;;;;;;;53.33;25.67;;;2.90;99.90;;;;;;5035565;28;20029;-71
2021/12/15 13:33:30;;;;;;;55.17;27.20;;;3.00;99.90;;;;;;5035747;28;20033;-72
2021/12/15 13:36:11;;;;;;;53.45;26.00;;;3.00;99.90;;;;;;5035411;28;20048;-73
2021/12/15 13:38:48;;;;;;;48.55;24.67;;;3.00;99.90;;;;;;5038023;28;20083;-73
2021/12/15 13:41:30;;;;;;;49.95;24.75;;;3.00;99.90;;;;;;5042691;28;20030;-74
2021/12/15 13:44:02;;;;;;;52.17;24.13;;;3.00;99.90;;;;;;5035430;28;20108;-73
2021/12/15 13:46:28;;;;;;;43.55;23.75;;;3.00;99.90;;;;;;5034210;28;20022;-71
2021/12/15 13:49:06;;;;;;;43.70;23.23;;;3.00;99.90;;;;;;5035555;28;20037;-77
2021/12/15 13:52:03;;;;;;;39.05;21.45;;;3.00;99.90;;;;;;5035854;28;20034;-72
2021/12/15 13:54:35;;;;;;;38.42;21.88;;;3.00;99.90;;;;;;5046816;28;20494;-71
2021/12/15 13:57:12;;;;;;;43.90;23.55;;;3.10;99.90;;;;;;5033136;28;20013;-72
2021/12/15 14:00:02;;;;;;;40.70;23.23;;;3.10;99.90;;;;;;5041301;28;20021;-73
2021/12/15 14:02:32;;;;;;;45.83;22.27;;;3.10;99.70;;;;;;5043536;28;20021;-71
2021/12/15 14:05:16;;;;;;;40.83;22.20;;;3.10;99.50;;;;;;5041545;28;20511;-72
2021/12/15 14:07:46;;;;;;;49.92;26.58;;;3.10;99.40;;;;;;5041194;28;20588;-72
2021/12/15 14:10:17;;;;;;;43.75;24.35;;;3.00;99.30;;;;;;5037434;28;20029;-73
2021/12/15 14:12:46;;;;;;;37.00;20.80;;;3.00;99.10;;;;;;5043271;28;20049;-71
2021/12/15 14:15:27;;;;;;;44.17;23.10;;;3.10;98.90;;;;;;5038043;28;20099;-70
2021/12/15 14:17:56;;;;;;;41.65;22.05;;;3.00;98.70;;;;;;5034313;28;20456;-74
2021/12/15 14:20:22;;;;;;;38.92;21.90;;;3.00;98.50;;;;;;5042682;28;20029;-71
2021/12/15 14:23:05;;;;;;;37.60;20.95;;;3.00;98.40;;;;;;5045425;28;20036;-70
2021/12/15 14:25:34;;;;;;;36.15;20.80;;;3.00;98.20;;;;;;5035019;28;20108;-70
2021/12/15 14:28:15;;;;;;;38.38;20.48;;;3.00;97.80;;;;;;5043905;28;20029;-75
2021/12/15 14:30:42;;;;;;;41.15;21.02;;;2.90;97.70;;;;;;5042368;28;20479;-72
2021/12/15 14:33:42;;;;;;;32.88;19.17;;;2.90;98.10;;;;;;5044654;28;20060;-72
2021/12/15 14:36:18;;;;;;;32.17;17.70;;;2.90;98.00;;;;;;5038703;28;20044;-71